Time;durP1;ratioP1;P1;durP2;ratioP2;P2;SDS_P1;SDS_P2;PMS_P1;PMS_P2;Temp;Humidity;BMP_temperature;BMP_pressure;BME280_temperature;BME280_humidity;BME280_pressure;Samples;Min_cycle;Max_cycle;Signal;HPM_P1;HPM_P2
2021/09/05 00:02:19;;;;;;;31.63;22.95;;;14.70;99.90;;;;;;5070371;28;20021;-74
2021/09/05 00:04:45;;;;;;;25.23;18.88;;;14.80;99.90;;;;;;5062794;28;20051;-74
2021/09/05 00:07:10;;;;;;;31.83;20.25;;;14.70;99.90;;;;;;5052759;28;20048;-74
2021/09/05 00:09:36;;;;;;;28.67;19.60;;;14.60;99.90;;;;;;5072247;28;20391;-74
2021/09/05 00:12:02;;;;;;;27.55;19.08;;;14.60;99.90;;;;;;5062944;28;20399;-73
2021/09/05 00:14:28;;;;;;;26.70;19.13;;;14.60;99.90;;;;;;5056743;28;20045;-73
2021/09/05 00:16:54;;;;;;;29.73;19.10;;;14.50;99.90;;;;;;5072073;28;20021;-74
2021/09/05 00:19:19;;;;;;;27.33;19.38;;;14.60;99.90;;;;;;5065278;28;20033;-73
2021/09/05 00:21:45;;;;;;;27.30;18.80;;;14.50;99.90;;;;;;5058674;28;20068;-73
2021/09/05 00:24:10;;;;;;;25.42;17.98;;;14.50;99.90;;;;;;5052247;28;20170;-73
2021/09/05 00:26:36;;;;;;;29.33;21.02;;;14.60;99.90;;;;;;5053494;28;20100;-73
2021/09/05 00:29:01;;;;;;;30.27;20.10;;;14.50;99.90;;;;;;5057842;28;20460;-74
2021/09/05 00:31:28;;;;;;;28.67;18.75;;;14.50;99.90;;;;;;5064835;28;20472;-74
2021/09/05 00:33:58;;;;;;;30.38;20.58;;;14.60;99.90;;;;;;5062790;28;20021;-73
2021/09/05 00:36:24;;;;;;;32.65;20.80;;;14.70;99.90;;;;;;5053337;28;20021;-74
2021/09/05 00:38:49;;;;;;;40.15;27.42;;;14.70;99.90;;;;;;5053309;28;20104;-74
2021/09/05 00:41:15;;;;;;;48.55;34.17;;;14.60;99.90;;;;;;5063982;28;20033;-75
2021/09/05 00:43:56;;;;;;;32.55;21.50;;;14.40;99.90;;;;;;5067689;28;20029;-74
2021/09/05 00:46:22;;;;;;;27.05;19.95;;;13.80;99.90;;;;;;5067519;28;20028;-75
2021/09/05 00:48:47;;;;;;;27.75;19.45;;;13.50;99.90;;;;;;5065605;28;20017;-75
2021/09/05 00:51:13;;;;;;;26.67;19.15;;;13.70;99.90;;;;;;5065903;28;20432;-74
2021/09/05 00:53:39;;;;;;;30.63;20.30;;;13.80;99.90;;;;;;5059450;28;20176;-73
2021/09/05 00:56:04;;;;;;;31.95;21.25;;;13.90;99.90;;;;;;5065927;28;20028;-74
2021/09/05 00:58:30;;;;;;;31.70;20.05;;;13.90;99.90;;;;;;5058152;28;20048;-74
2021/09/05 01:00:57;;;;;;;33.45;22.42;;;13.90;99.90;;;;;;5066176;28;20035;-75
2021/09/05 01:03:23;;;;;;;30.33;20.52;;;13.90;99.90;;;;;;5066487;28;20021;-74
2021/09/05 01:05:49;;;;;;;29.27;19.77;;;13.90;99.90;;;;;;5065705;28;20103;-74
2021/09/05 01:08:14;;;;;;;30.50;19.73;;;14.00;99.90;;;;;;5053334;28;20079;-74
2021/09/05 01:10:40;;;;;;;27.38;18.98;;;14.00;99.90;;;;;;5066033;28;20487;-73
2021/09/05 01:13:05;;;;;;;28.30;19.30;;;14.00;99.90;;;;;;5059524;28;20036;-74
2021/09/05 01:15:31;;;;;;;25.77;17.92;;;14.00;99.90;;;;;;5059278;28;20060;-74
2021/09/05 01:17:56;;;;;;;30.38;18.88;;;14.00;99.90;;;;;;5053162;28;20566;-74
2021/09/05 01:20:22;;;;;;;27.58;19.40;;;13.90;99.90;;;;;;5052584;28;20025;-76
2021/09/05 01:22:47;;;;;;;29.38;21.30;;;13.90;99.90;;;;;;5052150;28;20056;-76
2021/09/05 01:25:13;;;;;;;32.95;21.48;;;13.90;99.90;;;;;;5064124;28;20376;-76
2021/09/05 01:27:39;;;;;;;30.30;20.50;;;13.90;99.90;;;;;;5053386;28;20032;-77
2021/09/05 01:30:05;;;;;;;27.67;20.58;;;13.90;99.90;;;;;;5065242;28;20021;-76
2021/09/05 01:32:30;;;;;;;31.83;21.20;;;13.90;99.90;;;;;;5054744;28;20487;-76
2021/09/05 01:34:57;;;;;;;31.65;21.25;;;13.80;99.90;;;;;;5057487;28;20069;-76
2021/09/05 01:37:22;;;;;;;34.17;23.17;;;13.80;99.90;;;;;;5072727;28;20029;-78
2021/09/05 01:39:48;;;;;;;31.33;21.60;;;13.80;99.90;;;;;;5065162;28;20047;-78
2021/09/05 01:42:13;;;;;;;36.80;24.20;;;13.80;99.90;;;;;;5071491;28;20029;-77
2021/09/05 01:44:39;;;;;;;35.25;23.20;;;13.70;99.90;;;;;;5073030;28;20036;-77
2021/09/05 01:47:06;;;;;;;32.45;22.73;;;13.70;99.90;;;;;;5070107;28;20024;-76
2021/09/05 01:49:32;;;;;;;30.67;21.92;;;13.60;99.90;;;;;;5064867;28;20497;-78
2021/09/05 01:51:57;;;;;;;34.90;21.92;;;13.60;99.90;;;;;;5051423;28;20025;-77
2021/09/05 01:54:23;;;;;;;34.80;23.00;;;13.60;99.90;;;;;;5065443;28;20028;-76
2021/09/05 01:56:48;;;;;;;36.97;24.15;;;13.60;99.90;;;;;;5066519;28;20028;-75
2021/09/05 01:59:14;;;;;;;34.75;23.25;;;13.50;99.90;;;;;;5063988;28;20069;-76
2021/09/05 02:01:40;;;;;;;40.78;26.45;;;13.10;99.90;;;;;;5065297;28;20556;-75
2021/09/05 02:04:05;;;;;;;36.92;25.15;;;13.10;99.90;;;;;;5050990;28;20028;-76
2021/09/05 02:06:31;;;;;;;33.28;24.38;;;13.10;99.90;;;;;;5065458;28;20424;-76
2021/09/05 02:08:57;;;;;;;35.05;23.45;;;13.20;99.90;;;;;;5062606;28;20021;-76
2021/09/05 02:11:23;;;;;;;32.90;23.70;;;13.30;99.90;;;;;;5058080;28;20082;-75
2021/09/05 02:13:49;;;;;;;37.72;24.33;;;13.20;99.90;;;;;;5059151;28;20123;-75
2021/09/05 02:16:14;;;;;;;37.80;24.58;;;13.30;99.90;;;;;;5065258;28;20103;-75
2021/09/05 02:18:40;;;;;;;35.00;24.38;;;13.40;99.90;;;;;;5064320;28;20398;-76
2021/09/05 02:21:05;;;;;;;34.25;24.17;;;13.40;99.90;;;;;;5066129;28;20087;-76
2021/09/05 02:23:32;;;;;;;35.42;24.38;;;13.40;99.90;;;;;;5059423;28;20033;-75
2021/09/05 02:25:57;;;;;;;34.80;23.70;;;13.40;99.90;;;;;;5065112;28;20040;-76
2021/09/05 02:28:23;;;;;;;35.95;24.33;;;13.40;99.90;;;;;;5069235;28;20025;-73
2021/09/05 02:30:48;;;;;;;38.92;25.50;;;13.30;99.90;;;;;;5058616;28;20029;-74
2021/09/05 02:33:14;;;;;;;38.72;25.27;;;13.30;99.90;;;;;;5060029;28;20032;-74
2021/09/05 02:35:39;;;;;;;44.30;27.33;;;13.30;99.90;;;;;;5055599;28;20028;-74
2021/09/05 02:38:05;;;;;;;43.58;27.92;;;13.00;99.90;;;;;;5060185;28;20029;-74
2021/09/05 02:40:30;;;;;;;40.20;25.75;;;12.90;99.90;;;;;;5056788;28;20037;-74
2021/09/05 02:42:56;;;;;;;37.63;25.92;;;12.80;99.90;;;;;;5060253;28;20091;-75
2021/09/05 02:45:21;;;;;;;41.38;26.27;;;13.00;99.90;;;;;;5063339;28;20037;-75
2021/09/05 02:47:47;;;;;;;45.90;28.70;;;13.10;99.90;;;;;;5062983;28;20463;-75
2021/09/05 02:50:13;;;;;;;41.47;26.65;;;13.10;99.90;;;;;;5056785;28;20027;-76
2021/09/05 02:52:38;;;;;;;38.25;26.02;;;13.20;99.90;;;;;;5060452;28;20036;-75
2021/09/05 02:55:04;;;;;;;39.20;26.38;;;13.20;99.90;;;;;;5064643;28;20036;-75
2021/09/05 02:57:30;;;;;;;45.38;28.77;;;13.20;99.90;;;;;;5062722;28;20107;-76
2021/09/05 02:59:55;;;;;;;46.88;29.48;;;13.20;99.90;;;;;;5058068;28;20047;-77
2021/09/05 03:02:21;;;;;;;49.78;30.10;;;13.20;99.90;;;;;;5071331;28;20024;-76
2021/09/05 03:04:46;;;;;;;44.22;27.73;;;13.30;99.90;;;;;;5070829;28;20025;-76
2021/09/05 03:07:12;;;;;;;52.92;30.48;;;13.20;99.90;;;;;;5066089;28;20028;-75
2021/09/05 03:09:39;;;;;;;43.40;28.05;;;13.00;99.90;;;;;;5063832;28;20520;-75
2021/09/05 03:12:05;;;;;;;48.83;31.17;;;13.10;99.90;;;;;;5067156;28;20463;-76
2021/09/05 03:14:30;;;;;;;44.13;28.55;;;13.10;99.90;;;;;;5073531;28;20486;-76
2021/09/05 03:16:56;;;;;;;44.47;29.33;;;13.20;99.90;;;;;;5058849;28;20071;-75
2021/09/05 03:19:21;;;;;;;43.70;28.13;;;13.20;99.90;;;;;;5065530;28;20032;-75
2021/09/05 03:21:47;;;;;;;45.47;29.77;;;13.20;99.90;;;;;;5071322;28;20021;-77
2021/09/05 03:24:13;;;;;;;54.83;31.27;;;13.20;99.90;;;;;;5061431;28;20100;-75
2021/09/05 03:26:39;;;;;;;52.50;31.17;;;13.00;99.90;;;;;;5062760;28;20033;-76
2021/09/05 03:29:05;;;;;;;54.17;32.50;;;13.00;99.90;;;;;;5069048;28;20024;-76
2021/09/05 03:31:30;;;;;;;49.38;31.25;;;13.20;99.90;;;;;;5074848;28;20656;-76
2021/09/05 03:33:56;;;;;;;48.10;30.20;;;13.20;99.90;;;;;;5061569;28;20093;-76
2021/09/05 03:36:22;;;;;;;44.17;28.60;;;13.20;99.90;;;;;;5073711;28;20074;-74
2021/09/05 03:38:47;;;;;;;47.20;29.27;;;13.20;99.90;;;;;;5062161;28;20038;-75
2021/09/05 03:41:13;;;;;;;55.10;32.92;;;13.20;99.90;;;;;;5061772;28;20051;-75
2021/09/05 03:43:39;;;;;;;51.05;30.77;;;13.30;99.90;;;;;;5069798;28;20028;-73
2021/09/05 03:46:04;;;;;;;50.88;30.13;;;13.10;99.90;;;;;;5053609;28;20446;-75
2021/09/05 03:48:30;;;;;;;52.83;32.38;;;13.10;99.90;;;;;;5067735;28;20052;-76
2021/09/05 03:50:56;;;;;;;46.42;30.50;;;13.20;99.90;;;;;;5068186;28;20013;-74
2021/09/05 03:53:21;;;;;;;47.58;30.77;;;13.10;99.90;;;;;;5065530;28;20497;-75
2021/09/05 03:55:47;;;;;;;52.05;29.95;;;13.10;99.90;;;;;;5064820;28;20033;-78
2021/09/05 03:58:13;;;;;;;48.75;28.80;;;13.00;99.90;;;;;;5076593;28;20040;-77
2021/09/05 04:00:38;;;;;;;45.90;30.30;;;13.10;99.90;;;;;;5070295;28;20040;-74
2021/09/05 04:03:04;;;;;;;51.67;29.48;;;13.00;99.90;;;;;;5067616;28;20071;-75
2021/09/05 04:05:29;;;;;;;45.70;29.70;;;12.90;99.90;;;;;;5054027;28;20025;-75
2021/09/05 04:10:30;;;;;;;50.47;30.52;;;13.00;99.90;;;;;;5073758;28;20107;-74
2021/09/05 04:12:57;;;;;;;54.63;30.90;;;12.80;99.90;;;;;;5055370;28;20032;-74
2021/09/05 04:15:23;;;;;;;52.60;31.77;;;12.80;99.90;;;;;;5063420;28;20032;-74
2021/09/05 04:17:49;;;;;;;49.80;31.33;;;12.80;99.90;;;;;;5060479;28;20108;-74
2021/09/05 04:20:15;;;;;;;58.33;32.92;;;13.00;99.90;;;;;;5062043;28;20103;-74
2021/09/05 04:22:40;;;;;;;52.75;31.15;;;13.00;99.90;;;;;;5065807;28;20017;-74
2021/09/05 04:25:06;;;;;;;45.50;30.33;;;12.80;99.90;;;;;;5052603;28;20021;-76
2021/09/05 04:27:32;;;;;;;55.35;32.90;;;12.80;99.90;;;;;;5067164;28;20048;-73
2021/09/05 04:29:58;;;;;;;61.42;35.25;;;12.90;99.90;;;;;;5064432;28;20063;-75
2021/09/05 04:32:24;;;;;;;57.22;33.08;;;12.80;99.90;;;;;;5058871;28;20394;-75
2021/09/05 04:34:50;;;;;;;50.78;30.70;;;12.80;99.90;;;;;;5061580;28;20057;-75
2021/09/05 04:37:17;;;;;;;55.55;32.78;;;12.70;99.90;;;;;;5067200;28;20537;-74
2021/09/05 04:39:43;;;;;;;57.25;32.47;;;12.80;99.90;;;;;;5064313;28;20024;-75
2021/09/05 04:42:09;;;;;;;51.63;32.08;;;12.90;99.90;;;;;;5060324;28;20024;-76
2021/09/05 04:44:34;;;;;;;51.28;30.77;;;12.80;99.90;;;;;;5061134;28;20059;-76
2021/09/05 04:47:02;;;;;;;55.08;31.50;;;13.00;99.90;;;;;;5071006;28;20029;-76
2021/09/05 04:49:27;;;;;;;54.15;31.75;;;12.70;99.90;;;;;;5061033;28;20021;-76
2021/09/05 04:51:53;;;;;;;55.90;31.80;;;12.70;99.90;;;;;;5066518;28;20036;-76
2021/09/05 04:54:18;;;;;;;46.20;29.27;;;12.60;99.90;;;;;;5064336;28;20570;-75
2021/09/05 04:56:44;;;;;;;56.40;31.92;;;12.60;99.90;;;;;;5054317;28;20028;-75
2021/09/05 04:59:09;;;;;;;50.50;29.92;;;12.50;99.90;;;;;;5066948;28;20049;-73
2021/09/05 05:01:35;;;;;;;51.60;30.38;;;12.40;99.90;;;;;;5059728;28;20054;-73
2021/09/05 05:04:00;;;;;;;58.63;33.78;;;12.50;99.90;;;;;;5065446;28;20031;-73
2021/09/05 05:06:26;;;;;;;67.32;36.75;;;12.40;99.90;;;;;;5066823;28;20025;-73
2021/09/05 05:08:51;;;;;;;74.13;36.45;;;12.40;99.90;;;;;;5055149;28;20029;-73
2021/09/05 05:11:17;;;;;;;54.80;32.05;;;12.20;99.90;;;;;;5067322;28;20025;-73
2021/09/05 05:13:43;;;;;;;55.38;32.75;;;12.30;99.90;;;;;;5064282;28;20033;-73
2021/09/05 05:16:09;;;;;;;53.70;32.08;;;12.40;99.90;;;;;;5063957;28;20025;-73
2021/09/05 05:18:35;;;;;;;58.55;34.03;;;12.50;99.90;;;;;;5059412;28;20399;-73
2021/09/05 05:21:01;;;;;;;63.95;35.70;;;12.70;99.90;;;;;;5061763;28;20054;-72
2021/09/05 05:23:26;;;;;;;54.83;32.70;;;12.90;99.90;;;;;;5060381;28;20029;-72
2021/09/05 05:25:52;;;;;;;53.63;32.88;;;12.90;99.90;;;;;;5050805;28;20116;-73
2021/09/05 05:28:18;;;;;;;57.63;33.17;;;12.80;99.90;;;;;;5052366;28;20039;-72
2021/09/05 05:30:44;;;;;;;54.08;32.35;;;12.80;99.90;;;;;;5057545;28;20107;-72
2021/09/05 05:33:09;;;;;;;47.85;29.95;;;12.90;99.90;;;;;;5063804;28;20538;-72
2021/09/05 05:35:35;;;;;;;49.25;31.17;;;13.00;99.90;;;;;;5059485;28;20052;-76
2021/09/05 05:38:00;;;;;;;49.03;29.52;;;13.10;99.90;;;;;;5064346;28;20368;-76
2021/09/05 05:40:26;;;;;;;51.13;30.52;;;13.20;99.90;;;;;;5066195;28;20147;-75
2021/09/05 05:42:52;;;;;;;52.30;31.25;;;13.30;99.90;;;;;;5054071;28;20025;-75
2021/09/05 05:45:18;;;;;;;51.40;30.30;;;13.30;99.90;;;;;;5057061;28;20474;-75
2021/09/05 05:47:46;;;;;;;61.05;33.22;;;13.00;99.90;;;;;;5059398;28;20074;-76
2021/09/05 05:50:12;;;;;;;53.22;33.05;;;12.90;99.90;;;;;;5066918;28;20021;-76
2021/09/05 05:52:38;;;;;;;54.67;31.98;;;12.90;99.90;;;;;;5060201;28;20036;-76
2021/09/05 05:55:04;;;;;;;51.95;32.08;;;13.10;99.90;;;;;;5069451;28;20020;-76
2021/09/05 05:57:30;;;;;;;52.00;32.53;;;13.00;99.90;;;;;;5060000;28;20029;-75
2021/09/05 05:59:56;;;;;;;54.50;32.53;;;12.90;99.90;;;;;;5065626;28;20028;-76
2021/09/05 06:02:21;;;;;;;51.58;31.45;;;13.00;99.90;;;;;;5051430;28;20468;-77
2021/09/05 06:04:47;;;;;;;53.95;32.55;;;13.30;99.90;;;;;;5051861;28;20029;-73
2021/09/05 06:07:13;;;;;;;50.47;32.20;;;13.50;99.90;;;;;;5052008;28;20555;-75
2021/09/05 06:09:39;;;;;;;53.33;32.25;;;13.40;99.90;;;;;;5052936;28;20068;-76
2021/09/05 06:12:06;;;;;;;55.65;35.13;;;13.50;99.90;;;;;;5050770;28;20029;-76
2021/09/05 06:14:32;;;;;;;54.15;33.55;;;13.40;99.90;;;;;;5070019;28;20024;-76
2021/09/05 06:16:57;;;;;;;55.92;34.75;;;13.60;99.90;;;;;;5060191;28;20063;-75
2021/09/05 06:19:23;;;;;;;48.55;32.28;;;13.70;99.90;;;;;;5066567;28;20544;-73
2021/09/05 06:21:48;;;;;;;56.70;33.53;;;14.00;99.90;;;;;;5065698;28;20119;-76
2021/09/05 06:24:14;;;;;;;55.97;34.47;;;14.10;99.90;;;;;;5062457;28;20021;-74
2021/09/05 06:26:39;;;;;;;55.83;35.08;;;14.10;99.90;;;;;;5070051;28;20372;-73
2021/09/05 06:29:05;;;;;;;55.13;33.40;;;14.10;99.90;;;;;;5071733;28;20036;-74
2021/09/05 06:31:30;;;;;;;53.80;33.08;;;14.20;99.90;;;;;;5060278;28;20025;-74
2021/09/05 06:33:56;;;;;;;52.03;32.78;;;14.30;99.90;;;;;;5065119;28;20032;-74
2021/09/05 06:36:21;;;;;;;61.90;36.60;;;14.30;99.90;;;;;;5062931;28;20031;-75
2021/09/05 06:38:48;;;;;;;61.47;36.10;;;14.30;99.90;;;;;;5059373;28;20078;-76
2021/09/05 06:41:13;;;;;;;59.83;35.50;;;14.10;99.90;;;;;;5063098;28;20112;-74
2021/09/05 06:43:39;;;;;;;60.30;34.30;;;14.20;99.90;;;;;;5074084;28;20100;-75
2021/09/05 06:46:05;;;;;;;53.60;34.97;;;14.10;99.90;;;;;;5064207;28;20032;-75
2021/09/05 06:48:31;;;;;;;60.45;36.72;;;14.30;99.90;;;;;;5073448;28;20028;-75
2021/09/05 06:50:58;;;;;;;55.10;34.78;;;14.30;99.90;;;;;;5075870;28;20411;-75
2021/09/05 06:53:23;;;;;;;55.75;34.58;;;14.30;99.90;;;;;;5061958;28;20023;-75
2021/09/05 06:55:49;;;;;;;54.30;34.03;;;14.50;99.90;;;;;;5062485;28;20029;-75
2021/09/05 06:58:15;;;;;;;54.67;33.95;;;14.50;99.90;;;;;;5067753;28;20035;-75
2021/09/05 07:00:40;;;;;;;53.88;33.22;;;14.50;99.90;;;;;;5066681;28;20020;-75
2021/09/05 07:03:06;;;;;;;56.08;33.72;;;14.60;99.90;;;;;;5062017;28;20025;-75
2021/09/05 07:05:31;;;;;;;52.63;32.50;;;14.80;99.90;;;;;;5064112;28;20029;-75
2021/09/05 07:07:57;;;;;;;50.75;31.52;;;15.00;99.90;;;;;;5068816;28;20029;-75
2021/09/05 07:10:26;;;;;;;50.70;33.50;;;15.20;99.90;;;;;;5067327;28;20073;-75
2021/09/05 07:12:52;;;;;;;50.17;32.85;;;15.20;99.90;;;;;;5063973;28;20025;-75
2021/09/05 07:15:18;;;;;;;49.95;33.05;;;15.20;99.90;;;;;;5065272;28;20150;-75
2021/09/05 07:17:43;;;;;;;52.25;33.45;;;15.20;99.90;;;;;;5073000;28;20501;-75
2021/09/05 07:20:10;;;;;;;48.70;31.63;;;15.40;99.90;;;;;;5063237;28;20100;-75
2021/09/05 07:22:36;;;;;;;46.95;31.35;;;15.50;99.90;;;;;;5071706;28;20012;-75
2021/09/05 07:25:02;;;;;;;49.00;31.55;;;15.60;99.90;;;;;;5065323;28;20024;-75
2021/09/05 07:27:29;;;;;;;50.22;32.33;;;15.50;99.90;;;;;;5061691;28;20045;-74
2021/09/05 07:29:54;;;;;;;49.17;31.35;;;15.70;99.90;;;;;;5062734;28;20036;-75
2021/09/05 07:32:20;;;;;;;48.13;30.70;;;15.80;99.90;;;;;;5068170;28;20434;-75
2021/09/05 07:34:46;;;;;;;48.70;31.55;;;16.00;99.90;;;;;;5066871;28;20028;-75
2021/09/05 07:37:12;;;;;;;46.53;31.00;;;16.00;99.90;;;;;;5055692;28;20029;-75
2021/09/05 07:39:37;;;;;;;46.95;31.17;;;16.10;99.90;;;;;;5065965;28;20025;-75
2021/09/05 07:42:04;;;;;;;43.75;29.35;;;16.30;99.90;;;;;;5060031;28;20067;-75
2021/09/05 07:44:29;;;;;;;40.88;28.42;;;16.40;99.90;;;;;;5060423;28;20056;-75
2021/09/05 07:46:55;;;;;;;43.65;28.48;;;16.50;99.90;;;;;;5066403;28;20056;-75
2021/09/05 07:49:21;;;;;;;42.80;28.55;;;16.60;99.90;;;;;;5061856;28;20017;-75
2021/09/05 07:51:46;;;;;;;37.63;25.23;;;16.70;99.90;;;;;;5068147;28;20029;-75
2021/09/05 07:54:12;;;;;;;41.17;26.63;;;16.80;99.90;;;;;;5065868;28;20029;-75
2021/09/05 07:56:37;;;;;;;38.35;25.95;;;16.90;99.90;;;;;;5059396;28;20479;-74
2021/09/05 07:59:03;;;;;;;39.03;26.75;;;17.00;99.90;;;;;;5061863;28;20025;-75
2021/09/05 08:01:28;;;;;;;38.58;25.17;;;17.10;99.90;;;;;;5070637;28;20037;-74
2021/09/05 08:03:54;;;;;;;40.17;26.58;;;17.20;99.90;;;;;;5060965;28;20017;-75
2021/09/05 08:06:19;;;;;;;37.58;25.92;;;17.20;99.90;;;;;;5067988;28;20033;-75
2021/09/05 08:08:45;;;;;;;36.13;25.65;;;17.20;99.90;;;;;;5066530;28;20028;-75
2021/09/05 08:11:11;;;;;;;34.78;24.48;;;17.20;99.90;;;;;;5056332;28;20029;-75
2021/09/05 08:13:36;;;;;;;34.13;24.88;;;17.20;99.90;;;;;;5064775;28;20028;-75
2021/09/05 08:16:03;;;;;;;34.30;24.67;;;17.40;99.90;;;;;;5058825;28;20071;-75
2021/09/05 08:18:30;;;;;;;39.25;25.90;;;17.50;99.90;;;;;;5061992;28;20021;-75
2021/09/05 08:20:56;;;;;;;33.78;24.38;;;17.60;99.90;;;;;;5067421;28;20013;-75
2021/09/05 08:23:22;;;;;;;34.13;23.23;;;17.50;99.90;;;;;;5064847;28;20020;-75
2021/09/05 08:25:48;;;;;;;34.75;23.38;;;17.60;99.90;;;;;;5060363;28;20031;-75
2021/09/05 08:28:13;;;;;;;28.38;20.90;;;17.70;99.90;;;;;;5062925;28;20404;-75
2021/09/05 08:30:39;;;;;;;29.48;21.20;;;17.80;99.90;;;;;;5058129;28;20047;-75
2021/09/05 08:33:04;;;;;;;31.20;21.67;;;17.70;99.90;;;;;;5062560;28;20032;-75
2021/09/05 08:35:30;;;;;;;28.42;20.98;;;17.80;99.90;;;;;;5066782;28;20368;-75
2021/09/05 08:37:56;;;;;;;32.03;22.27;;;17.90;99.90;;;;;;5063361;28;20423;-75
2021/09/05 08:40:27;;;;;;;27.35;20.52;;;18.10;99.90;;;;;;5060110;28;20505;-75
2021/09/05 08:42:53;;;;;;;28.38;21.33;;;18.10;99.90;;;;;;5061982;28;20147;-75
2021/09/05 08:45:19;;;;;;;29.42;21.40;;;18.40;99.90;;;;;;5058365;28;20108;-75
2021/09/05 08:47:45;;;;;;;29.13;21.10;;;18.40;99.90;;;;;;5065936;28;20028;-75
2021/09/05 08:50:11;;;;;;;26.90;20.80;;;18.40;99.90;;;;;;5058579;28;20141;-75
2021/09/05 08:52:37;;;;;;;29.23;19.70;;;18.50;99.90;;;;;;5061657;28;20108;-75
2021/09/05 08:55:04;;;;;;;29.13;19.02;;;18.60;99.90;;;;;;5066461;28;20167;-75
2021/09/05 08:57:29;;;;;;;27.70;19.10;;;18.70;99.90;;;;;;5065064;28;20028;-75
2021/09/05 08:59:55;;;;;;;24.27;19.00;;;18.60;99.90;;;;;;5064420;28;20021;-75
2021/09/05 09:02:21;;;;;;;26.45;19.65;;;18.70;99.90;;;;;;5060800;28;20082;-75
2021/09/05 09:04:50;;;;;;;24.92;18.65;;;18.80;99.90;;;;;;5066375;28;20021;-75
2021/09/05 09:07:16;;;;;;;23.08;18.30;;;18.90;99.90;;;;;;5063713;28;20487;-75
2021/09/05 09:10:01;;;;;;;23.35;17.08;;;18.90;99.90;;;;;;5061099;28;20035;-75
2021/09/05 09:12:36;;;;;;;22.27;16.98;;;19.10;99.90;;;;;;5064078;28;20028;-75
2021/09/05 09:15:02;;;;;;;20.50;16.52;;;19.10;99.90;;;;;;5072725;28;20030;-75
2021/09/05 09:17:36;;;;;;;21.52;16.08;;;19.30;99.90;;;;;;5068531;28;20029;-75
2021/09/05 09:20:02;;;;;;;25.15;17.02;;;19.30;99.90;;;;;;5061851;28;20016;-75
2021/09/05 09:22:28;;;;;;;21.73;17.00;;;19.20;99.90;;;;;;5058226;28;20528;-75
2021/09/05 09:24:53;;;;;;;21.27;16.38;;;19.20;99.90;;;;;;5065153;28;20459;-75
2021/09/05 09:27:19;;;;;;;22.35;16.38;;;19.40;99.90;;;;;;5067821;28;20039;-75
2021/09/05 09:29:44;;;;;;;21.45;16.25;;;19.50;99.90;;;;;;5052603;28;20021;-76
2021/09/05 09:32:22;;;;;;;22.40;17.08;;;19.60;99.90;;;;;;5052273;28;20090;-76
2021/09/05 09:34:50;;;;;;;21.05;15.85;;;19.60;99.90;;;;;;5053158;28;20395;-75
2021/09/05 09:37:19;;;;;;;21.27;15.98;;;19.80;99.90;;;;;;5065708;28;20029;-75
2021/09/05 09:39:58;;;;;;;23.35;16.10;;;19.80;99.90;;;;;;5067074;28;20029;-75
2021/09/05 09:42:35;;;;;;;22.52;15.63;;;19.90;99.90;;;;;;5065159;28;20016;-75
2021/09/05 09:45:11;;;;;;;17.13;14.27;;;19.80;99.90;;;;;;5058774;28;20718;-75
2021/09/05 09:47:38;;;;;;;18.17;14.48;;;20.00;99.90;;;;;;5061164;28;20094;-75
2021/09/05 09:50:04;;;;;;;19.42;14.60;;;20.10;99.90;;;;;;5058910;28;20024;-76
2021/09/05 09:52:30;;;;;;;15.40;13.48;;;20.30;99.90;;;;;;5061091;28;20025;-75
2021/09/05 09:54:58;;;;;;;19.30;14.88;;;20.40;99.90;;;;;;5065172;28;20024;-75
2021/09/05 09:57:23;;;;;;;17.75;14.43;;;20.50;99.90;;;;;;5062154;28;20040;-76
2021/09/05 09:59:49;;;;;;;18.52;15.02;;;20.50;99.90;;;;;;5064309;28;20028;-75
2021/09/05 10:02:18;;;;;;;19.83;14.98;;;20.40;99.90;;;;;;5062203;28;20024;-75
2021/09/05 10:04:48;;;;;;;19.55;14.55;;;20.60;99.90;;;;;;5054862;28;20066;-75
2021/09/05 10:07:16;;;;;;;19.20;14.88;;;20.60;99.90;;;;;;5050948;28;20071;-76
2021/09/05 10:09:42;;;;;;;19.02;14.20;;;20.70;99.90;;;;;;5067639;28;20035;-76
2021/09/05 10:12:09;;;;;;;19.83;15.27;;;20.70;99.90;;;;;;5071619;28;20024;-75
2021/09/05 10:14:37;;;;;;;17.55;14.18;;;20.80;99.90;;;;;;5070251;28;20097;-76
2021/09/05 10:17:03;;;;;;;18.27;13.13;;;21.00;99.90;;;;;;5070378;28;20039;-75
2021/09/05 10:19:29;;;;;;;16.27;14.07;;;21.20;99.90;;;;;;5057377;28;20082;-75
2021/09/05 10:21:54;;;;;;;17.30;13.77;;;21.30;99.90;;;;;;5063979;28;20021;-75
2021/09/05 10:24:20;;;;;;;15.73;13.07;;;21.30;99.90;;;;;;5057725;28;20528;-75
2021/09/05 10:27:32;;;;;;;15.43;12.98;;;21.50;99.90;;;;;;5063935;28;20035;-75
2021/09/05 10:30:07;;;;;;;16.63;13.25;;;21.60;99.90;;;;;;5044366;28;20033;-76
2021/09/05 10:32:50;;;;;;;16.50;13.55;;;21.50;99.90;;;;;;5058442;28;20029;-76
2021/09/05 10:35:25;;;;;;;17.60;13.25;;;21.40;99.90;;;;;;5057056;28;20520;-75
2021/09/05 10:38:10;;;;;;;15.60;13.02;;;21.60;99.90;;;;;;5060428;28;20521;-75
2021/09/05 10:40:46;;;;;;;18.33;13.83;;;21.70;99.90;;;;;;5065077;28;20071;-75
2021/09/05 10:43:12;;;;;;;20.50;14.20;;;21.90;99.90;;;;;;5065179;28;20024;-75
2021/09/05 10:45:39;;;;;;;16.42;13.98;;;21.90;99.90;;;;;;5057845;28;20029;-76
2021/09/05 10:48:37;;;;;;;17.08;14.10;;;22.00;99.90;;;;;;5058249;28;20021;-76
2021/09/05 10:51:05;;;;;;;16.25;13.13;;;22.00;99.90;;;;;;5058217;28;20044;-76
2021/09/05 10:53:37;;;;;;;15.45;13.02;;;22.00;99.90;;;;;;5064988;28;20100;-75
2021/09/05 10:56:11;;;;;;;16.85;13.02;;;22.20;99.90;;;;;;5063378;28;20511;-75
2021/09/05 10:58:46;;;;;;;15.75;12.75;;;22.20;99.90;;;;;;5051484;28;20032;-75
2021/09/05 11:01:26;;;;;;;16.17;13.57;;;22.30;99.90;;;;;;5053752;28;20429;-75
2021/09/05 11:04:10;;;;;;;18.35;13.70;;;22.50;99.90;;;;;;5060569;28;20387;-76
2021/09/05 11:06:37;;;;;;;16.65;12.98;;;22.50;99.90;;;;;;5071393;28;20559;-75
2021/09/05 11:09:18;;;;;;;17.17;12.43;;;22.50;99.90;;;;;;5065243;28;20043;-76
2021/09/05 11:12:21;;;;;;;16.73;12.68;;;22.70;99.90;;;;;;5055103;28;20481;-76
2021/09/05 11:14:50;;;;;;;14.43;12.00;;;22.70;99.90;;;;;;5056490;28;20063;-75
2021/09/05 11:17:24;;;;;;;13.55;11.57;;;22.80;99.90;;;;;;5060671;28;20433;-75
2021/09/05 11:20:03;;;;;;;16.63;12.05;;;23.00;99.90;;;;;;5062327;28;20482;-75
2021/09/05 11:22:28;;;;;;;15.75;12.30;;;22.80;99.90;;;;;;5054903;28;20371;-75
2021/09/05 11:25:12;;;;;;;15.05;11.90;;;22.90;99.90;;;;;;5062525;28;20025;-75
2021/09/05 11:27:40;;;;;;;16.85;11.93;;;23.00;99.90;;;;;;5059894;28;20059;-75
2021/09/05 11:30:08;;;;;;;15.80;12.27;;;23.10;99.90;;;;;;5061600;28;20071;-75
2021/09/05 11:32:35;;;;;;;13.15;10.75;;;23.00;99.90;;;;;;5067702;28;20033;-74
2021/09/05 11:35:01;;;;;;;12.13;10.93;;;23.30;99.90;;;;;;5067731;28;20031;-74
2021/09/05 11:37:31;;;;;;;13.68;9.80;;;23.20;99.90;;;;;;5054676;28;20025;-74
2021/09/05 11:40:04;;;;;;;13.45;10.77;;;23.20;99.90;;;;;;5054621;28;20475;-74
2021/09/05 11:42:31;;;;;;;13.18;11.15;;;23.40;99.90;;;;;;5054579;28;20415;-74
2021/09/05 11:45:05;;;;;;;13.60;10.88;;;23.40;99.90;;;;;;5066327;28;20032;-74
2021/09/05 11:47:31;;;;;;;11.85;9.88;;;23.50;99.90;;;;;;5053336;28;20025;-74
2021/09/05 11:49:58;;;;;;;11.50;10.30;;;23.80;99.90;;;;;;5054417;28;20036;-74
2021/09/05 11:52:27;;;;;;;12.15;9.77;;;24.10;99.90;;;;;;5053263;28;20064;-75
2021/09/05 11:55:06;;;;;;;14.30;10.30;;;24.10;99.90;;;;;;5066495;28;20112;-75
2021/09/05 11:57:34;;;;;;;14.52;10.82;;;24.20;99.90;;;;;;5056545;28;20486;-75
2021/09/05 12:00:03;;;;;;;11.38;9.48;;;24.40;99.90;;;;;;5065537;28;20040;-74
2021/09/05 12:02:31;;;;;;;11.20;10.00;;;24.50;99.90;;;;;;5060110;28;20043;-74
2021/09/05 12:04:57;;;;;;;11.30;8.80;;;24.70;99.90;;;;;;5054269;28;20017;-74
2021/09/05 12:07:23;;;;;;;10.70;8.57;;;24.90;99.90;;;;;;5066945;28;20039;-73
2021/09/05 12:10:06;;;;;;;10.35;8.65;;;25.10;99.90;;;;;;5061993;28;20036;-70
2021/09/05 12:12:31;;;;;;;10.38;8.48;;;25.70;99.90;;;;;;5057431;28;20033;-74
2021/09/05 12:14:57;;;;;;;9.57;7.65;;;25.80;99.90;;;;;;5053958;28;20024;-77
2021/09/05 12:17:28;;;;;;;10.48;7.93;;;26.30;99.90;;;;;;5066466;28;20093;-77
2021/09/05 12:19:56;;;;;;;9.88;7.32;;;26.20;99.90;;;;;;5063424;28;20471;-77
2021/09/05 12:22:22;;;;;;;8.20;7.15;;;27.10;99.90;;;;;;5059183;28;20382;-77
2021/09/05 12:24:55;;;;;;;8.45;7.50;;;27.10;99.90;;;;;;5062763;28;20025;-77
2021/09/05 12:27:21;;;;;;;7.78;6.65;;;27.50;99.90;;;;;;5068600;28;20055;-77
2021/09/05 12:29:46;;;;;;;6.85;5.97;;;27.80;99.90;;;;;;5057213;28;20045;-77
2021/09/05 12:32:14;;;;;;;7.35;6.25;;;27.80;99.90;;;;;;5069479;28;20031;-77